createdAt,value
2019-06-26T00:01:52.186Z,24.20
2019-06-26T00:04:20.495Z,24.20
2019-06-26T00:06:48.720Z,24.10
2019-06-26T00:09:16.944Z,24.10
2019-06-26T00:11:45.215Z,24.10
2019-06-26T00:14:13.517Z,24.10
2019-06-26T00:16:41.748Z,24.10
2019-06-26T00:19:09.995Z,24.00
2019-06-26T00:21:38.231Z,24.10
2019-06-26T00:24:06.479Z,24.00
2019-06-26T00:26:34.698Z,24.00
2019-06-26T00:29:02.917Z,23.90
2019-06-26T00:31:31.187Z,23.90
2019-06-26T00:33:59.448Z,23.90
2019-06-26T00:36:27.670Z,23.80
2019-06-26T00:38:55.893Z,23.80
2019-06-26T00:41:24.192Z,23.80
2019-06-26T00:43:52.425Z,23.80
2019-06-26T00:46:20.889Z,23.80
2019-06-26T00:48:49.121Z,23.80
2019-06-26T00:51:17.351Z,23.70
2019-06-26T00:53:45.574Z,23.70
2019-06-26T00:56:13.808Z,23.80
2019-06-26T00:58:42.221Z,23.70
2019-06-26T01:01:10.567Z,23.70
2019-06-26T01:03:38.799Z,23.60
2019-06-26T01:06:08.652Z,23.50
2019-06-26T01:08:36.960Z,23.60
2019-06-26T01:11:05.191Z,23.50
2019-06-26T01:13:33.411Z,23.50
2019-06-26T01:16:01.635Z,23.50
2019-06-26T01:18:29.857Z,23.50
2019-06-26T01:20:58.200Z,23.40
2019-06-26T01:23:26.416Z,23.50
2019-06-26T01:25:54.648Z,23.50
2019-06-26T01:28:22.863Z,23.40
2019-06-26T01:30:51.091Z,23.40
2019-06-26T01:33:19.472Z,23.40
2019-06-26T01:35:47.704Z,23.40
2019-06-26T01:38:15.923Z,23.40
2019-06-26T01:40:44.162Z,23.30
2019-06-26T01:43:12.377Z,23.30
2019-06-26T01:45:40.618Z,23.20
2019-06-26T01:48:08.828Z,23.20
2019-06-26T01:50:37.048Z,23.10
2019-06-26T01:53:05.493Z,23.10
2019-06-26T01:55:33.706Z,23.10
2019-06-26T01:58:01.948Z,23.10
2019-06-26T02:00:31.034Z,23.10
2019-06-26T02:02:59.348Z,23.10
2019-06-26T02:05:27.798Z,23.10
2019-06-26T02:07:56.007Z,23.10
2019-06-26T02:10:24.238Z,23.00
2019-06-26T02:12:52.478Z,23.00
2019-06-26T02:15:20.697Z,23.10
2019-06-26T02:17:48.922Z,23.00
2019-06-26T02:20:17.175Z,23.00
2019-06-26T02:22:48.682Z,23.00
2019-06-26T02:25:15.552Z,23.00
2019-06-26T02:27:43.791Z,23.00
2019-06-26T02:30:12.382Z,23.00
2019-06-26T02:32:40.877Z,22.90
2019-06-26T02:35:10.511Z,23.00
2019-06-26T02:37:39.035Z,22.90
2019-06-26T02:40:08.433Z,22.90
2019-06-26T02:42:36.779Z,22.90
2019-06-26T02:45:05.821Z,22.80
2019-06-26T02:47:34.679Z,22.80
2019-06-26T02:50:03.251Z,22.80
2019-06-26T02:52:31.501Z,22.80
2019-06-26T02:54:59.784Z,22.80
2019-06-26T02:57:28.010Z,22.80
2019-06-26T02:59:56.238Z,22.80
2019-06-26T03:02:24.464Z,22.80
2019-06-26T03:04:52.788Z,22.70
2019-06-26T03:07:21.230Z,22.70
2019-06-26T03:09:49.977Z,22.80
2019-06-26T03:12:18.238Z,22.70
2019-06-26T03:14:46.546Z,22.70
2019-06-26T03:17:14.788Z,22.70
2019-06-26T03:19:43.169Z,22.70
2019-06-26T03:22:11.583Z,22.70
2019-06-26T03:24:39.816Z,22.70
2019-06-26T03:27:09.130Z,22.70
2019-06-26T03:29:37.723Z,22.80
2019-06-26T03:32:05.953Z,22.80
2019-06-26T03:34:34.169Z,22.70
2019-06-26T03:37:02.409Z,22.80
2019-06-26T03:39:30.618Z,22.80
2019-06-26T03:41:58.847Z,22.80
2019-06-26T03:44:27.083Z,22.80
2019-06-26T03:46:55.362Z,22.90
2019-06-26T03:49:23.587Z,22.90
2019-06-26T03:51:51.806Z,22.90
2019-06-26T03:54:20.039Z,22.80
2019-06-26T03:56:48.249Z,22.80
2019-06-26T03:59:16.483Z,22.80
2019-06-26T04:01:44.697Z,22.90
2019-06-26T04:04:12.978Z,23.00
2019-06-26T04:06:41.286Z,22.90
2019-06-26T04:09:09.500Z,23.00
2019-06-26T04:11:37.734Z,23.00
2019-06-26T04:14:05.967Z,23.00
2019-06-26T04:16:34.239Z,23.00
2019-06-26T04:19:02.464Z,23.00
2019-06-26T04:21:30.689Z,23.10
2019-06-26T04:23:58.937Z,23.10
2019-06-26T04:26:27.211Z,23.10
2019-06-26T04:28:55.424Z,23.20
2019-06-26T04:31:23.652Z,23.20
2019-06-26T04:33:51.862Z,23.10
2019-06-26T04:36:20.091Z,23.20
2019-06-26T04:38:48.335Z,23.20
2019-06-26T04:41:16.550Z,23.30
2019-06-26T04:43:44.771Z,23.30
2019-06-26T04:46:13.040Z,23.30
2019-06-26T04:48:41.260Z,23.40
2019-06-26T04:51:09.487Z,23.40
2019-06-26T04:53:37.704Z,23.40
2019-06-26T04:56:06.127Z,23.40
2019-06-26T04:58:34.356Z,23.50
2019-06-26T05:01:02.606Z,23.50
2019-06-26T05:03:30.883Z,23.50
2019-06-26T05:05:59.111Z,23.60
2019-06-26T05:08:27.436Z,23.50
2019-06-26T05:10:55.674Z,23.60
2019-06-26T05:13:23.874Z,23.60
2019-06-26T05:15:52.202Z,23.60
2019-06-26T05:18:20.419Z,23.60
2019-06-26T05:20:48.632Z,23.70
2019-06-26T05:23:16.877Z,23.70
2019-06-26T05:25:45.096Z,23.70
2019-06-26T05:28:13.427Z,23.80
2019-06-26T05:30:41.661Z,23.80
2019-06-26T05:33:09.885Z,23.80
2019-06-26T05:35:38.126Z,23.90
2019-06-26T05:38:06.341Z,23.90
2019-06-26T05:40:34.576Z,23.90
2019-06-26T05:43:02.792Z,23.90
2019-06-26T05:45:31.025Z,24.00
2019-06-26T05:48:02.257Z,24.00
2019-06-26T05:50:30.522Z,24.10
2019-06-26T05:52:58.816Z,24.10
2019-06-26T05:55:27.302Z,24.10
2019-06-26T05:57:55.587Z,24.20
2019-06-26T06:00:23.824Z,24.20
2019-06-26T06:02:53.979Z,24.20
2019-06-26T06:05:22.577Z,24.20
2019-06-26T06:07:50.807Z,24.30
2019-06-26T06:10:19.010Z,24.30
2019-06-26T06:12:47.249Z,24.30
2019-06-26T06:15:15.464Z,24.40
2019-06-26T06:17:43.717Z,24.40
2019-06-26T06:20:11.933Z,24.50
2019-06-26T06:22:40.260Z,24.50
2019-06-26T06:25:08.677Z,24.50
2019-06-26T06:27:36.951Z,24.60
2019-06-26T06:30:07.830Z,24.60
2019-06-26T06:32:36.143Z,24.60
2019-06-26T06:35:06.432Z,24.60
2019-06-26T06:37:34.672Z,24.70
2019-06-26T06:40:03.764Z,24.70
2019-06-26T06:42:31.989Z,24.70
2019-06-26T06:45:00.294Z,24.80
2019-06-26T06:47:28.507Z,24.80
2019-06-26T06:49:56.757Z,24.90
2019-06-26T06:52:24.990Z,24.90
2019-06-26T06:54:53.207Z,24.90
2019-06-26T06:57:21.484Z,24.90
2019-06-26T06:59:49.723Z,25.00
2019-06-26T07:02:17.923Z,25.00
2019-06-26T07:04:46.195Z,25.10
2019-06-26T07:07:14.638Z,25.10
2019-06-26T07:09:42.856Z,25.10
2019-06-26T07:12:11.099Z,25.10
2019-06-26T07:14:39.494Z,25.20
2019-06-26T07:17:20.093Z,25.20
2019-06-26T07:19:38.825Z,25.30
2019-06-26T07:22:07.525Z,25.30
2019-06-26T07:24:37.350Z,25.30
2019-06-26T07:27:05.582Z,25.40
2019-06-26T07:29:34.063Z,25.40
2019-06-26T07:32:02.497Z,25.50
2019-06-26T07:34:31.230Z,25.50
2019-06-26T07:36:59.660Z,25.60
2019-06-26T07:39:28.208Z,25.60
2019-06-26T07:41:56.472Z,25.70
2019-06-26T07:44:24.736Z,25.70
2019-06-26T07:46:53.390Z,25.80
2019-06-26T07:49:21.729Z,25.80
2019-06-26T07:51:49.996Z,25.80
2019-06-26T07:54:18.391Z,25.80
2019-06-26T07:56:47.236Z,25.90
2019-06-26T07:59:15.497Z,25.90
2019-06-26T08:01:43.895Z,26.00
2019-06-26T08:04:12.106Z,26.00
2019-06-26T08:06:40.549Z,26.00
2019-06-26T08:09:09.192Z,26.00
2019-06-26T08:11:37.630Z,26.00
2019-06-26T08:14:05.835Z,26.10
2019-06-26T08:16:34.549Z,26.10
2019-06-26T08:19:03.319Z,26.20
2019-06-26T08:21:31.641Z,26.20
2019-06-26T08:23:59.903Z,26.30
2019-06-26T08:26:28.234Z,26.30
2019-06-26T08:28:56.426Z,26.30
2019-06-26T08:31:24.661Z,26.40
2019-06-26T08:33:53.087Z,26.40
2019-06-26T08:36:21.671Z,26.40
2019-06-26T08:38:49.878Z,26.40
2019-06-26T08:41:18.111Z,26.50
2019-06-26T08:43:46.332Z,26.50
2019-06-26T08:46:14.552Z,26.50
2019-06-26T08:48:42.790Z,26.60
2019-06-26T08:51:10.998Z,26.70
2019-06-26T08:53:39.252Z,26.70
2019-06-26T08:56:07.546Z,26.70
2019-06-26T08:58:35.779Z,26.70
2019-06-26T09:01:04.033Z,26.80
2019-06-26T09:03:32.332Z,26.90
2019-06-26T09:06:02.180Z,27.00
2019-06-26T09:08:31.160Z,27.00
2019-06-26T09:10:59.620Z,27.10
2019-06-26T09:13:27.933Z,27.10
2019-06-26T09:15:56.185Z,27.20
2019-06-26T09:18:35.070Z,27.20
2019-06-26T09:20:55.116Z,27.20
2019-06-26T09:23:23.337Z,27.30
2019-06-26T09:25:51.634Z,27.30
2019-06-26T09:28:19.871Z,27.30
2019-06-26T09:30:48.076Z,27.30
2019-06-26T09:33:16.369Z,27.40
2019-06-26T09:35:44.678Z,27.50
2019-06-26T09:38:13.013Z,27.50
2019-06-26T09:40:41.359Z,27.60
2019-06-26T09:43:09.649Z,27.60
2019-06-26T09:45:37.890Z,27.60
2019-06-26T09:48:06.229Z,27.70
2019-06-26T09:50:34.971Z,27.70
2019-06-26T09:53:05.431Z,27.70
2019-06-26T09:55:33.281Z,27.80
2019-06-26T09:58:01.517Z,27.90
2019-06-26T10:00:30.699Z,27.90
2019-06-26T10:02:58.994Z,27.90
2019-06-26T10:05:27.207Z,27.90
2019-06-26T10:07:56.010Z,28.00
2019-06-26T10:10:24.251Z,28.00
2019-06-26T10:12:52.554Z,28.00
2019-06-26T10:15:20.946Z,28.00
2019-06-26T10:17:49.512Z,28.00
2019-06-26T10:20:18.601Z,28.10
2019-06-26T10:22:47.282Z,28.10
2019-06-26T10:25:15.513Z,28.10
2019-06-26T10:27:44.042Z,28.10
2019-06-26T10:30:12.568Z,28.10
2019-06-26T10:32:40.801Z,28.20
2019-06-26T10:35:09.597Z,28.20
2019-06-26T10:37:37.807Z,28.10
2019-06-26T10:40:06.214Z,28.10
2019-06-26T10:42:34.607Z,28.20
2019-06-26T10:45:03.300Z,28.20
2019-06-26T10:47:31.528Z,28.20
2019-06-26T10:49:59.815Z,28.20
2019-06-26T10:52:28.034Z,28.20
2019-06-26T10:54:56.268Z,28.20
2019-06-26T10:57:24.494Z,28.30
2019-06-26T10:59:55.623Z,28.30
2019-06-26T11:02:22.681Z,28.30
2019-06-26T11:04:50.961Z,28.40
2019-06-26T11:07:19.217Z,28.30
2019-06-26T11:09:47.458Z,28.40
2019-06-26T11:12:15.671Z,28.40
2019-06-26T11:14:44.031Z,28.30
2019-06-26T11:17:12.306Z,28.30
2019-06-26T11:19:44.400Z,28.30
2019-06-26T11:22:10.782Z,28.30
2019-06-26T11:24:39.075Z,28.40
2019-06-26T11:27:07.745Z,28.30
2019-06-26T11:29:35.974Z,28.30
2019-06-26T11:32:04.260Z,28.30
2019-06-26T11:34:32.518Z,28.30
2019-06-26T11:37:04.224Z,28.30
2019-06-26T11:39:31.225Z,28.30
2019-06-26T11:41:59.517Z,28.40
2019-06-26T11:44:27.815Z,28.40
2019-06-26T11:46:56.412Z,28.40
2019-06-26T11:49:24.894Z,28.40
2019-06-26T11:51:53.248Z,28.40
2019-06-26T11:54:21.724Z,28.50
2019-06-26T11:56:49.993Z,28.50
2019-06-26T11:59:18.262Z,28.40
2019-06-26T12:01:46.572Z,28.50
2019-06-26T12:04:14.844Z,28.40
2019-06-26T12:06:45.977Z,28.40
2019-06-26T12:09:13.302Z,28.40
2019-06-26T12:11:41.829Z,28.50
2019-06-26T12:14:10.167Z,28.50
2019-06-26T12:16:38.658Z,28.50
2019-06-26T12:19:06.968Z,28.50
2019-06-26T12:21:35.263Z,28.50
2019-06-26T12:24:03.620Z,28.40
2019-06-26T12:26:32.054Z,28.40
2019-06-26T12:29:00.385Z,28.40
2019-06-26T12:31:28.637Z,28.50
2019-06-26T12:33:56.972Z,28.50
2019-06-26T12:36:25.525Z,28.50
2019-06-26T12:38:53.893Z,28.50
2019-06-26T12:41:22.134Z,28.60
2019-06-26T12:43:50.443Z,28.60
2019-06-26T12:46:19.763Z,28.60
2019-06-26T12:48:48.020Z,28.70
2019-06-26T12:51:16.362Z,28.60
2019-06-26T12:53:44.997Z,28.70
2019-06-26T12:56:13.337Z,28.70
2019-06-26T12:58:41.586Z,28.70
2019-06-26T13:01:09.846Z,28.70
2019-06-26T13:03:38.133Z,28.70
2019-06-26T13:06:06.452Z,28.60
2019-06-26T13:08:34.888Z,28.70
2019-06-26T13:11:03.162Z,28.60
2019-06-26T13:13:31.442Z,28.60
2019-06-26T13:15:59.747Z,28.50
2019-06-26T13:18:28.345Z,28.50
2019-06-26T13:20:57.645Z,28.40
2019-06-26T13:23:26.061Z,28.50
2019-06-26T13:25:55.342Z,28.50
2019-06-26T13:28:23.664Z,28.50
2019-06-26T13:30:53.352Z,28.50
2019-06-26T13:33:22.041Z,28.50
2019-06-26T13:35:50.328Z,28.60
2019-06-26T13:38:18.554Z,28.60
2019-06-26T13:40:46.847Z,28.60
2019-06-26T13:43:15.138Z,28.60
2019-06-26T13:45:43.395Z,28.50
2019-06-26T13:48:11.651Z,28.50
2019-06-26T13:50:41.111Z,28.60
2019-06-26T13:53:09.503Z,28.60
2019-06-26T13:55:37.809Z,28.50
2019-06-26T13:58:06.017Z,28.50
2019-06-26T14:00:34.289Z,28.50
2019-06-26T14:03:02.535Z,28.40
2019-06-26T14:05:30.817Z,28.40
2019-06-26T14:07:59.333Z,28.30
2019-06-26T14:10:27.883Z,28.40
2019-06-26T14:12:56.822Z,28.40
2019-06-26T14:15:25.304Z,28.40
2019-06-26T14:17:53.668Z,28.40
2019-06-26T14:20:21.952Z,28.40
2019-06-26T14:22:50.364Z,28.40
2019-06-26T14:25:18.809Z,28.40
2019-06-26T14:27:47.682Z,28.40
2019-06-26T14:30:15.987Z,28.40
2019-06-26T14:32:44.210Z,28.50
2019-06-26T14:35:12.686Z,28.50
2019-06-26T14:37:41.016Z,28.50
2019-06-26T14:40:09.315Z,28.40
2019-06-26T14:42:37.740Z,28.40
2019-06-26T14:45:09.788Z,28.40
2019-06-26T14:47:38.328Z,28.30
2019-06-26T14:50:06.956Z,28.40
2019-06-26T14:52:35.301Z,28.40
2019-06-26T14:55:05.364Z,28.30
2019-06-26T14:57:33.618Z,28.30
2019-06-26T15:00:01.891Z,28.30
2019-06-26T15:02:31.955Z,28.20
2019-06-26T15:05:00.106Z,28.20
2019-06-26T15:07:28.385Z,28.10
2019-06-26T15:09:56.702Z,28.00
2019-06-26T15:12:25.003Z,28.00
2019-06-26T15:15:03.176Z,28.10
2019-06-26T15:17:31.390Z,28.00
2019-06-26T15:20:00.628Z,28.00
2019-06-26T15:22:28.842Z,28.00
2019-06-26T15:24:57.181Z,28.00
2019-06-26T15:27:25.437Z,27.90
2019-06-26T15:29:54.078Z,27.90
2019-06-26T15:32:22.438Z,27.90
2019-06-26T15:34:50.870Z,27.80
2019-06-26T15:37:19.183Z,27.70
2019-06-26T15:39:47.469Z,27.60
2019-06-26T15:42:15.752Z,27.50
2019-06-26T15:44:44.471Z,27.50
2019-06-26T15:47:12.688Z,27.30
2019-06-26T15:49:41.959Z,27.40
2019-06-26T15:52:15.175Z,27.50
2019-06-26T15:54:40.351Z,27.10
2019-06-26T15:57:08.586Z,27.20
2019-06-26T15:59:37.129Z,27.00
2019-06-26T16:02:05.366Z,27.10
2019-06-26T16:04:35.244Z,27.10
2019-06-26T16:07:03.986Z,26.90
2019-06-26T16:09:32.290Z,27.00
2019-06-26T16:12:00.523Z,27.00
2019-06-26T16:14:28.755Z,26.90
2019-06-26T16:16:58.931Z,26.60
2019-06-26T16:19:27.321Z,26.80
2019-06-26T16:21:55.894Z,26.80
2019-06-26T16:24:24.150Z,26.80
2019-06-26T16:26:52.383Z,26.80
2019-06-26T16:29:20.718Z,26.60
2019-06-26T16:31:48.960Z,26.30
2019-06-26T16:34:17.180Z,26.50
2019-06-26T16:36:45.444Z,26.50
2019-06-26T16:39:13.705Z,26.30
2019-06-26T16:41:42.092Z,26.20
2019-06-26T16:44:10.339Z,26.30
2019-06-26T16:46:38.605Z,26.20
2019-06-26T16:49:07.006Z,26.00
2019-06-26T16:51:36.135Z,25.90
2019-06-26T16:54:04.395Z,25.80
2019-06-26T16:56:32.660Z,25.70
2019-06-26T16:59:00.917Z,25.70
2019-06-26T17:01:29.221Z,25.90
2019-06-26T17:03:57.456Z,26.00
2019-06-26T17:06:25.967Z,25.70
2019-06-26T17:08:54.251Z,25.60
2019-06-26T17:11:22.827Z,25.60
2019-06-26T17:13:51.048Z,25.50
2019-06-26T17:16:19.260Z,25.50
2019-06-26T17:18:47.654Z,25.50
2019-06-26T17:21:15.971Z,25.40
2019-06-26T17:23:45.303Z,25.20
2019-06-26T17:26:13.536Z,25.20
2019-06-26T17:28:41.771Z,25.00
2019-06-26T17:31:09.988Z,25.00
2019-06-26T17:33:38.226Z,25.00
2019-06-26T17:36:07.523Z,25.10
2019-06-26T17:38:35.749Z,24.90
2019-06-26T17:41:03.960Z,24.80
2019-06-26T17:43:32.223Z,24.90
2019-06-26T17:46:00.457Z,24.70
2019-06-26T17:48:28.665Z,24.60
2019-06-26T17:50:56.913Z,24.60
2019-06-26T17:53:25.850Z,24.60
2019-06-26T17:55:54.065Z,24.40
2019-06-26T17:58:25.257Z,24.40
2019-06-26T18:00:52.217Z,24.20
2019-06-26T18:03:21.483Z,24.30
2019-06-26T18:05:49.843Z,24.40
2019-06-26T18:08:18.155Z,24.40
2019-06-26T18:10:46.367Z,24.40
2019-06-26T18:13:14.611Z,24.30
2019-06-26T18:15:42.936Z,24.20
2019-06-26T18:18:12.228Z,24.20
2019-06-26T18:20:40.480Z,24.10
2019-06-26T18:23:08.742Z,23.90
2019-06-26T18:25:37.125Z,23.90
2019-06-26T18:28:06.376Z,23.80
2019-06-26T18:30:34.618Z,23.70
2019-06-26T18:33:02.855Z,23.80
2019-06-26T18:35:31.097Z,23.70
2019-06-26T18:37:59.452Z,23.70
2019-06-26T18:40:28.839Z,23.60
2019-06-26T18:42:57.082Z,23.70
2019-06-26T18:45:25.351Z,23.60
2019-06-26T18:47:53.579Z,23.50
2019-06-26T18:50:21.808Z,23.40
2019-06-26T18:52:50.047Z,23.50
2019-06-26T18:55:19.345Z,23.50
2019-06-26T18:57:47.642Z,23.50
2019-06-26T19:00:16.148Z,23.40
2019-06-26T19:02:44.369Z,23.40
2019-06-26T19:05:13.199Z,23.20
2019-06-26T19:07:41.415Z,23.10
2019-06-26T19:10:09.796Z,23.00
2019-06-26T19:12:38.085Z,23.10
2019-06-26T19:15:07.763Z,23.10
2019-06-26T19:17:36.363Z,22.90
2019-06-26T19:20:07.657Z,22.90
2019-06-26T19:22:35.925Z,22.80
2019-06-26T19:25:05.699Z,22.60
2019-06-26T19:27:33.928Z,22.50
2019-06-26T19:30:03.287Z,22.30
2019-06-26T19:32:31.503Z,22.30
2019-06-26T19:35:07.997Z,22.30
2019-06-26T19:37:30.128Z,22.40
2019-06-26T19:39:58.424Z,22.50
2019-06-26T19:42:26.879Z,22.20
2019-06-26T19:44:55.098Z,22.00
2019-06-26T19:47:23.791Z,22.10
2019-06-26T19:49:52.012Z,22.10
2019-06-26T19:52:20.561Z,22.10
2019-06-26T19:54:48.789Z,22.00
2019-06-26T19:57:16.986Z,22.00
2019-06-26T19:59:45.223Z,22.00
2019-06-26T20:02:13.438Z,22.00
2019-06-26T20:04:41.651Z,22.00
2019-06-26T20:07:09.955Z,22.10
2019-06-26T20:09:38.161Z,21.90
2019-06-26T20:12:06.506Z,21.80
2019-06-26T20:14:34.752Z,21.80
2019-06-26T20:17:03.004Z,21.80
2019-06-26T20:19:31.278Z,21.70
2019-06-26T20:21:59.568Z,21.70
2019-06-26T20:24:42.799Z,21.80
2019-06-26T20:26:57.925Z,21.90
2019-06-26T20:29:26.142Z,21.60
2019-06-26T20:31:55.149Z,21.80
2019-06-26T20:34:23.364Z,22.00
2019-06-26T20:36:51.827Z,21.70
2019-06-26T20:39:39.552Z,21.60
2019-06-26T20:42:08.873Z,21.60
2019-06-26T20:44:37.238Z,21.40
2019-06-26T20:47:06.460Z,21.40
2019-06-26T20:49:34.730Z,21.30
2019-06-26T20:52:02.942Z,21.30
2019-06-26T20:54:31.254Z,21.30
2019-06-26T20:56:59.510Z,21.20
2019-06-26T20:59:27.714Z,21.20
2019-06-26T21:01:55.950Z,21.30
2019-06-26T21:04:24.240Z,21.20
2019-06-26T21:06:52.443Z,21.30
2019-06-26T21:09:20.793Z,21.50
2019-06-26T21:11:49.049Z,21.20
2019-06-26T21:14:17.248Z,21.20
2019-06-26T21:16:45.485Z,21.20
2019-06-26T21:19:13.700Z,21.10
2019-06-26T21:21:41.934Z,21.00
2019-06-26T21:24:10.253Z,21.10
2019-06-26T21:26:39.466Z,21.00
2019-06-26T21:29:07.706Z,21.00
2019-06-26T21:31:36.005Z,21.00
2019-06-26T21:34:04.232Z,21.10
2019-06-26T21:36:32.435Z,20.90
2019-06-26T21:39:00.713Z,20.80
2019-06-26T21:41:30.033Z,20.70
2019-06-26T21:43:58.297Z,20.70
2019-06-26T21:46:26.519Z,20.80
2019-06-26T21:48:54.739Z,20.80
2019-06-26T21:51:22.965Z,20.90
2019-06-26T21:53:51.328Z,20.80
2019-06-26T21:56:19.911Z,20.80
2019-06-26T21:58:48.789Z,20.70
2019-06-26T22:01:17.006Z,20.60
2019-06-26T22:03:45.277Z,20.60
2019-06-26T22:06:13.507Z,20.30
2019-06-26T22:08:41.716Z,20.50
2019-06-26T22:11:09.957Z,20.40
2019-06-26T22:13:38.158Z,20.40
2019-06-26T22:16:06.447Z,20.50
2019-06-26T22:18:34.654Z,20.40
2019-06-26T22:21:03.507Z,20.30
2019-06-26T22:23:31.721Z,20.20
2019-06-26T22:25:59.945Z,20.20
2019-06-26T22:28:28.170Z,20.20
2019-06-26T22:30:56.750Z,20.00
2019-06-26T22:33:24.976Z,20.10
2019-06-26T22:35:53.202Z,20.10
2019-06-26T22:38:21.408Z,20.30
2019-06-26T22:40:49.661Z,20.10
2019-06-26T22:43:17.955Z,20.10
2019-06-26T22:45:46.197Z,20.10
2019-06-26T22:48:14.479Z,20.20
2019-06-26T22:50:42.747Z,20.00
2019-06-26T22:53:11.042Z,20.00
2019-06-26T22:55:39.296Z,19.90
2019-06-26T22:58:07.529Z,19.90
2019-06-26T23:00:35.769Z,19.90
2019-06-26T23:03:04.011Z,19.90
2019-06-26T23:05:32.304Z,19.90
2019-06-26T23:08:01.403Z,19.80
2019-06-26T23:10:29.685Z,19.80
2019-06-26T23:12:58.999Z,19.60
2019-06-26T23:15:27.224Z,19.60
2019-06-26T23:17:56.055Z,19.60
2019-06-26T23:20:24.338Z,19.50
2019-06-26T23:22:52.556Z,19.50
2019-06-26T23:25:21.192Z,19.60
2019-06-26T23:27:49.424Z,19.50
2019-06-26T23:30:18.082Z,19.50
2019-06-26T23:32:46.602Z,19.50
2019-06-26T23:35:14.877Z,19.40
2019-06-26T23:37:43.271Z,19.50
2019-06-26T23:40:11.481Z,19.20
2019-06-26T23:42:39.715Z,19.30
2019-06-26T23:45:07.965Z,19.20
2019-06-26T23:47:36.181Z,19.10
2019-06-26T23:50:05.249Z,19.20
2019-06-26T23:52:33.464Z,19.40
2019-06-26T23:55:01.981Z,19.20
2019-06-26T23:57:30.286Z,19.20
2019-06-26T23:59:58.571Z,19.20
